createdAt,value
2022-12-11T00:00:29.590Z,-0.87
2022-12-11T00:02:51.994Z,-0.87
2022-12-11T00:05:14.417Z,-0.88
2022-12-11T00:07:36.715Z,-0.88
2022-12-11T00:09:59.049Z,-0.92
2022-12-11T00:12:21.379Z,-0.92
2022-12-11T00:14:43.714Z,-0.96
2022-12-11T00:17:06.215Z,-0.98
2022-12-11T00:19:28.642Z,-1.00
2022-12-11T00:21:50.979Z,-0.98
2022-12-11T00:24:13.322Z,-1.08
2022-12-11T00:26:35.671Z,-1.16
2022-12-11T00:28:58.043Z,-1.12
2022-12-11T00:31:20.676Z,-1.17
2022-12-11T00:33:44.293Z,-1.14
2022-12-11T00:36:24.449Z,-1.13
2022-12-11T00:38:46.970Z,-1.11
2022-12-11T00:41:09.409Z,-1.12
2022-12-11T00:43:31.770Z,-1.09
2022-12-11T00:45:54.129Z,-1.12
2022-12-11T00:48:16.536Z,-1.10
2022-12-11T00:50:39.038Z,-1.10
2022-12-11T00:53:01.939Z,-1.16
2022-12-11T00:55:25.474Z,-1.15
2022-12-11T00:57:47.795Z,-1.11
2022-12-11T01:00:11.521Z,-1.08
2022-12-11T01:02:34.434Z,-1.09
2022-12-11T01:04:56.883Z,-1.09
2022-12-11T01:07:19.163Z,-1.12
2022-12-11T01:10:00.040Z,-1.14
2022-12-11T01:12:22.353Z,-1.16
2022-12-11T01:14:44.685Z,-1.15
2022-12-11T01:17:07.025Z,-1.11
2022-12-11T01:19:29.351Z,-1.10
2022-12-11T01:21:51.647Z,-1.09
2022-12-11T01:24:13.971Z,-1.11
2022-12-11T01:26:36.296Z,-1.08
2022-12-11T01:28:58.736Z,-1.16
2022-12-11T01:31:22.339Z,-1.18
2022-12-11T01:33:44.728Z,-1.14
2022-12-11T01:36:15.151Z,-1.14
2022-12-11T01:38:37.545Z,-1.13
2022-12-11T01:40:59.856Z,-1.12
2022-12-11T01:43:22.230Z,-1.11
2022-12-11T01:45:47.787Z,-1.09
2022-12-11T01:48:42.075Z,-1.05
2022-12-11T01:51:05.556Z,-1.11
2022-12-11T01:53:35.510Z,-1.14
2022-12-11T01:55:58.218Z,-1.13
2022-12-11T01:58:21.386Z,-1.12
2022-12-11T02:00:43.611Z,-1.20
2022-12-11T02:03:05.942Z,-1.13
2022-12-11T02:05:28.261Z,-1.10
2022-12-11T02:07:54.454Z,-1.15
2022-12-11T02:10:16.854Z,-1.14
2022-12-11T02:12:51.376Z,-1.11
2022-12-11T02:15:19.449Z,-1.11
2022-12-11T02:18:02.668Z,-1.13
2022-12-11T02:20:33.636Z,-1.16
2022-12-11T02:23:22.802Z,-1.16
2022-12-11T02:26:12.564Z,-1.13
2022-12-11T02:28:46.334Z,-1.21
2022-12-11T02:31:25.594Z,-1.16
2022-12-11T02:34:20.490Z,-1.27
2022-12-11T02:36:46.650Z,-1.29
2022-12-11T02:39:12.496Z,-1.36
2022-12-11T02:41:34.893Z,-1.37
2022-12-11T02:43:57.549Z,-1.37
2022-12-11T02:46:20.394Z,-1.36
2022-12-11T02:48:46.242Z,-1.39
2022-12-11T02:51:08.737Z,-1.42
2022-12-11T02:53:34.581Z,-1.39
2022-12-11T02:56:09.533Z,-1.38
2022-12-11T02:58:43.946Z,-1.43
2022-12-11T03:04:12.765Z,-1.49
2022-12-11T03:06:43.399Z,-1.52
2022-12-11T03:09:05.876Z,-1.54
2022-12-11T03:11:28.225Z,-1.61
2022-12-11T03:13:51.773Z,-1.61
2022-12-11T03:16:40.751Z,-1.61
2022-12-11T03:19:37.450Z,-1.66
2022-12-11T03:22:10.321Z,-1.68
2022-12-11T03:24:50.763Z,-1.66
2022-12-11T03:27:26.045Z,-1.76
2022-12-11T03:30:16.692Z,-1.72
2022-12-11T03:32:46.104Z,-1.71
2022-12-11T03:35:40.525Z,-1.79
2022-12-11T03:38:52.748Z,-1.82
2022-12-11T03:41:15.575Z,-1.84
2022-12-11T03:43:37.920Z,-1.85
2022-12-11T03:46:00.322Z,-1.90
2022-12-11T03:48:22.684Z,-1.89
2022-12-11T03:50:45.028Z,-1.91
2022-12-11T03:53:07.513Z,-1.89
2022-12-11T03:55:29.960Z,-1.89
2022-12-11T03:57:52.305Z,-1.95
2022-12-11T04:00:18.034Z,-2.00
2022-12-11T04:02:41.510Z,-2.05
2022-12-11T04:05:04.013Z,-2.12
2022-12-11T04:07:26.329Z,-2.23
2022-12-11T04:09:48.657Z,-2.27
2022-12-11T04:12:10.957Z,-2.24
2022-12-11T04:14:52.026Z,-2.23
2022-12-11T04:17:34.289Z,-2.23
2022-12-11T04:20:15.275Z,-2.19
2022-12-11T04:22:56.198Z,-2.21
2022-12-11T04:25:18.616Z,-2.24
2022-12-11T04:27:50.034Z,-2.24
2022-12-11T04:30:16.811Z,-2.23
2022-12-11T04:32:39.112Z,-2.27
2022-12-11T04:35:01.476Z,-2.23
2022-12-11T04:37:23.818Z,-2.21
2022-12-11T04:39:46.100Z,-2.28
2022-12-11T04:42:08.438Z,-2.29
2022-12-11T04:44:30.756Z,-2.30
2022-12-11T04:46:53.134Z,-2.30
2022-12-11T04:49:15.565Z,-2.31
2022-12-11T04:51:37.874Z,-2.32
2022-12-11T04:54:00.209Z,-2.37
2022-12-11T04:56:22.610Z,-2.39
2022-12-11T04:58:45.081Z,-2.38
2022-12-11T05:01:19.591Z,-2.40
2022-12-11T05:03:42.053Z,-2.46
2022-12-11T05:06:04.579Z,-2.50
2022-12-11T05:08:26.907Z,-2.46
2022-12-11T05:11:00.174Z,-2.43
2022-12-11T05:13:22.488Z,-2.45
2022-12-11T05:15:44.859Z,-2.44
2022-12-11T05:18:07.217Z,-2.49
2022-12-11T05:20:29.594Z,-2.50
2022-12-11T05:22:51.896Z,-2.47
2022-12-11T05:25:14.300Z,-2.49
2022-12-11T05:27:38.181Z,-2.50
2022-12-11T05:30:00.514Z,-2.51
2022-12-11T05:32:22.910Z,-2.55
2022-12-11T05:34:45.248Z,-2.60
2022-12-11T05:37:07.614Z,-2.58
2022-12-11T05:39:29.972Z,-2.57
2022-12-11T05:41:52.328Z,-2.56
2022-12-11T05:44:14.692Z,-2.58
2022-12-11T05:46:37.013Z,-2.57
2022-12-11T05:49:01.053Z,-2.58
2022-12-11T05:51:23.668Z,-2.56
2022-12-11T05:53:47.628Z,-2.55
2022-12-11T05:56:30.539Z,-2.56
2022-12-11T05:58:53.224Z,-2.54
2022-12-11T06:01:30.229Z,-2.62
2022-12-11T06:03:53.878Z,-2.61
2022-12-11T06:06:16.264Z,-2.58
2022-12-11T06:08:38.864Z,-2.53
2022-12-11T06:11:01.273Z,-2.54
2022-12-11T06:13:23.656Z,-2.55
2022-12-11T06:15:45.968Z,-2.51
2022-12-11T06:18:08.783Z,-2.54
2022-12-11T06:20:34.855Z,-2.56
2022-12-11T06:22:57.197Z,-2.50
2022-12-11T06:25:19.528Z,-2.48
2022-12-11T06:27:41.834Z,-2.47
2022-12-11T06:30:04.656Z,-2.44
2022-12-11T06:32:27.268Z,-2.44
2022-12-11T06:34:49.598Z,-2.47
2022-12-11T06:37:12.228Z,-2.46
2022-12-11T06:39:34.512Z,-2.45
2022-12-11T06:41:56.873Z,-2.53
2022-12-11T06:44:19.222Z,-2.47
2022-12-11T06:46:41.542Z,-2.51
2022-12-11T06:49:03.889Z,-2.51
2022-12-11T06:51:26.404Z,-2.50
2022-12-11T06:53:53.540Z,-2.53
2022-12-11T06:56:15.919Z,-2.58
2022-12-11T06:58:38.475Z,-2.63
2022-12-11T07:01:00.858Z,-2.62
2022-12-11T07:03:23.305Z,-2.64
2022-12-11T07:05:45.640Z,-2.78
2022-12-11T07:08:08.019Z,-2.69
2022-12-11T07:10:30.372Z,-2.69
2022-12-11T07:12:55.786Z,-2.74
2022-12-11T07:15:18.155Z,-2.75
2022-12-11T07:17:40.488Z,-2.72
2022-12-11T07:20:02.888Z,-2.69
2022-12-11T07:22:25.230Z,-2.70
2022-12-11T07:24:47.549Z,-2.71
2022-12-11T07:27:09.896Z,-2.68
2022-12-11T07:29:32.369Z,-2.68
2022-12-11T07:31:54.811Z,-2.83
2022-12-11T07:34:17.198Z,-2.82
2022-12-11T07:36:39.531Z,-2.75
2022-12-11T07:39:02.019Z,-2.72
2022-12-11T07:41:24.503Z,-2.64
2022-12-11T07:43:47.164Z,-2.61
2022-12-11T07:46:18.843Z,-2.59
2022-12-11T07:48:42.243Z,-2.62
2022-12-11T07:51:19.343Z,-2.59
2022-12-11T07:53:43.077Z,-2.56
2022-12-11T07:56:05.903Z,-2.57
2022-12-11T07:58:28.278Z,-2.73
2022-12-11T08:00:50.692Z,-2.64
2022-12-11T08:03:18.081Z,-2.59
2022-12-11T08:05:40.573Z,-2.57
2022-12-11T08:08:03.062Z,-2.55
2022-12-11T08:10:28.827Z,-2.59
2022-12-11T08:12:51.483Z,-2.56
2022-12-11T08:15:34.632Z,-2.57
2022-12-11T08:17:57.837Z,-2.57
2022-12-11T08:20:26.515Z,-2.57
2022-12-11T08:22:58.825Z,-2.55
2022-12-11T08:25:30.945Z,-2.66
2022-12-11T08:35:26.039Z,-2.61
2022-12-11T08:40:28.043Z,-2.60
2022-12-11T08:53:28.641Z,-2.53
2022-12-11T08:55:57.964Z,-2.49
2022-12-11T09:03:44.082Z,-2.54
2022-12-11T09:06:14.558Z,-2.57
2022-12-11T09:08:51.677Z,-2.58
2022-12-11T09:14:16.530Z,-2.68
2022-12-11T09:20:43.626Z,-2.41
2022-12-11T09:40:53.278Z,-2.36
2022-12-11T09:48:02.802Z,-2.23
2022-12-11T09:51:06.888Z,-2.25
2022-12-11T09:53:35.360Z,-2.19
2022-12-11T09:56:14.085Z,-2.19
2022-12-11T10:21:18.358Z,-2.09
2022-12-11T10:23:46.501Z,-2.03
2022-12-11T10:26:23.459Z,-2.00
2022-12-11T10:28:55.574Z,-1.97
2022-12-11T10:31:22.854Z,-2.04
2022-12-11T10:34:20.485Z,-2.00
2022-12-11T10:37:00.429Z,-2.00
2022-12-11T10:39:02.924Z,-1.95
2022-12-11T10:41:14.181Z,-1.88
2022-12-11T10:46:24.937Z,-1.87
2022-12-11T10:48:32.392Z,-1.83
2022-12-11T10:54:45.601Z,-1.76
2022-12-11T10:57:07.129Z,-1.72
2022-12-11T10:59:24.139Z,-1.78
2022-12-11T11:01:30.828Z,-1.70
2022-12-11T11:06:39.729Z,-1.65
2022-12-11T11:30:08.413Z,-1.44
2022-12-11T11:38:04.422Z,-1.24
2022-12-11T11:53:16.847Z,-1.18
2022-12-11T11:55:47.482Z,-1.19
2022-12-11T11:58:13.946Z,-1.24
2022-12-11T12:00:21.783Z,-1.19
2022-12-11T12:02:24.271Z,-1.16
2022-12-11T12:04:33.144Z,-1.13
2022-12-11T12:07:32.083Z,-1.10
2022-12-11T12:10:22.967Z,-1.15
2022-12-11T12:13:47.729Z,-1.21
2022-12-11T12:15:55.542Z,-1.24
2022-12-11T12:18:02.813Z,-1.22
2022-12-11T12:20:37.757Z,-1.30
2022-12-11T12:23:15.093Z,-1.35
2022-12-11T12:25:37.360Z,-1.32
2022-12-11T12:32:21.229Z,-1.36
2022-12-11T12:34:53.776Z,-1.33
2022-12-11T12:37:43.896Z,-1.34
2022-12-11T12:40:32.527Z,-1.36
2022-12-11T12:42:48.648Z,-1.37
2022-12-11T12:45:15.084Z,-1.42
2022-12-11T12:47:18.014Z,-1.40
2022-12-11T12:49:29.423Z,-1.40
2022-12-11T12:51:31.819Z,-1.44
2022-12-11T12:53:35.157Z,-1.36
2022-12-11T12:55:37.573Z,-1.35
2022-12-11T12:57:51.473Z,-1.34
2022-12-11T12:59:56.754Z,-1.35
2022-12-11T13:02:03.163Z,-1.35
2022-12-11T13:04:08.663Z,-1.40
2022-12-11T13:06:15.720Z,-1.49
2022-12-11T13:08:25.000Z,-1.51
2022-12-11T13:10:38.391Z,-1.47
2022-12-11T13:12:45.795Z,-1.52
2022-12-11T13:14:55.784Z,-1.48
2022-12-11T13:17:46.706Z,-1.49
2022-12-11T13:19:50.453Z,-1.52
2022-12-11T13:30:07.782Z,-1.62
2022-12-11T13:32:19.266Z,-1.57
2022-12-11T13:34:23.352Z,-1.59
2022-12-11T13:36:35.487Z,-1.65
2022-12-11T13:38:39.102Z,-1.66
2022-12-11T13:40:43.032Z,-1.65
2022-12-11T13:42:48.842Z,-1.62
2022-12-11T13:44:51.389Z,-1.62
2022-12-11T13:46:54.679Z,-1.62
2022-12-11T13:49:05.012Z,-1.68
2022-12-11T13:54:37.759Z,-1.76
2022-12-11T14:41:43.883Z,-1.94
2022-12-11T18:00:02.079Z,-1.68
2022-12-11T18:10:12.180Z,-1.57
2022-12-11T18:47:56.561Z,-1.50
2022-12-11T20:00:08.786Z,-1.39
2022-12-11T20:18:06.631Z,-1.38
2022-12-11T20:20:39.147Z,-1.39
2022-12-11T20:22:41.451Z,-1.39
2022-12-11T20:24:43.616Z,-1.38
2022-12-11T20:26:47.359Z,-1.35
2022-12-11T20:28:51.281Z,-1.36
2022-12-11T20:30:53.332Z,-1.33
2022-12-11T20:32:55.478Z,-1.35
2022-12-11T20:34:58.023Z,-1.32
2022-12-11T20:37:00.526Z,-1.35
2022-12-11T20:39:02.942Z,-1.34
2022-12-11T20:41:06.302Z,-1.32
2022-12-11T20:43:08.731Z,-1.29
2022-12-11T20:45:11.404Z,-1.27
2022-12-11T20:47:14.581Z,-1.29
2022-12-11T20:49:17.000Z,-1.28
2022-12-11T20:51:25.717Z,-1.30
2022-12-11T20:53:28.686Z,-1.31
2022-12-11T20:55:31.031Z,-1.29
2022-12-11T20:57:39.328Z,-1.30
2022-12-11T20:59:45.318Z,-1.29
2022-12-11T21:01:47.695Z,-1.31
2022-12-11T21:03:50.304Z,-1.31
2022-12-11T21:05:52.787Z,-1.30
2022-12-11T21:07:55.371Z,-1.30
2022-12-11T21:09:57.746Z,-1.32
2022-12-11T21:12:01.008Z,-1.34
2022-12-11T21:14:03.373Z,-1.28
2022-12-11T21:16:07.259Z,-1.30
2022-12-11T21:18:09.591Z,-1.30
2022-12-11T21:20:12.270Z,-1.28
2022-12-11T21:22:14.747Z,-1.30
2022-12-11T21:24:23.797Z,-1.23
2022-12-11T21:26:26.146Z,-1.28
2022-12-11T21:28:35.006Z,-1.28
2022-12-11T21:30:44.329Z,-1.25
2022-12-11T21:32:47.302Z,-1.23
2022-12-11T21:34:51.513Z,-1.29
2022-12-11T21:36:56.921Z,-1.27
2022-12-11T21:38:59.950Z,-1.30
2022-12-11T21:41:17.716Z,-1.27
2022-12-11T21:43:20.326Z,-1.26
2022-12-11T21:46:00.543Z,-1.27
2022-12-11T21:47:45.221Z,-1.30
2022-12-11T21:49:47.817Z,-1.28
2022-12-11T21:51:50.519Z,-1.25
2022-12-11T21:53:53.649Z,-1.26
2022-12-11T21:55:56.129Z,-1.28
2022-12-11T21:57:58.878Z,-1.29
2022-12-11T22:00:01.446Z,-1.30
2022-12-11T22:02:04.301Z,-1.30
2022-12-11T22:04:07.401Z,-1.28
2022-12-11T22:06:10.287Z,-1.25
2022-12-11T22:08:12.671Z,-1.28
2022-12-11T22:10:23.909Z,-1.26
2022-12-11T22:12:28.239Z,-1.24
2022-12-11T22:14:33.958Z,-1.27
2022-12-11T22:16:36.192Z,-1.29
